sensor_id;sensor_type;location;lat;lon;timestamp;pressure;altitude;pressure_sealevel;temperature;humidity
6869;BME280;3473;42.604;23.496;2022-08-23T00:00:12;25904.66;;;-140.19;91.96
6869;BME280;3473;42.604;23.496;2022-08-23T00:01:47;26101.03;;;-140.19;92.04
6869;BME280;3473;42.604;23.496;2022-08-23T00:03:19;28369.16;;;-140.19;92.55
6869;BME280;3473;42.604;23.496;2022-08-23T00:04:51;32230.06;;;-140.19;93.22
6869;BME280;3473;42.604;23.496;2022-08-23T00:06:23;32348.91;;;-140.19;93.12
6869;BME280;3473;42.604;23.496;2022-08-23T00:07:54;32434.63;;;-140.19;93.30
6869;BME280;3473;42.604;23.496;2022-08-23T00:09:27;33689.53;;;-140.19;93.33
6869;BME280;3473;42.604;23.496;2022-08-23T00:10:58;33859.09;;;-140.19;93.43
6869;BME280;3473;42.604;23.496;2022-08-23T00:12:30;32074.22;;;-140.19;93.12
6869;BME280;3473;42.604;23.496;2022-08-23T00:14:06;31879.41;;;-140.19;93.14
6869;BME280;3473;42.604;23.496;2022-08-23T00:15:40;31924.22;;;-140.19;93.18
6869;BME280;3473;42.604;23.496;2022-08-23T00:17:12;36417.25;;;-140.19;93.92
6869;BME280;3473;42.604;23.496;2022-08-23T00:18:44;41725.03;;;-140.19;94.53
6869;BME280;3473;42.604;23.496;2022-08-23T00:20:17;47632.19;;;-140.19;95.26
6869;BME280;3473;42.604;23.496;2022-08-23T00:21:50;52646.03;;;-140.19;95.76
6869;BME280;3473;42.604;23.496;2022-08-23T00:23:22;53900.66;;;-140.19;95.89
6869;BME280;3473;42.604;23.496;2022-08-23T00:24:54;53900.66;;;-140.19;95.82
6869;BME280;3473;42.604;23.496;2022-08-23T00:26:26;52395.16;;;-140.19;95.65
6869;BME280;3473;42.604;23.496;2022-08-23T00:27:58;51893.47;;;-140.19;95.54
6869;BME280;3473;42.604;23.496;2022-08-23T00:29:37;49135.56;;;-140.19;95.29
6869;BME280;3473;42.604;23.496;2022-08-23T00:31:11;49636.84;;;-140.19;95.39
6869;BME280;3473;42.604;23.496;2022-08-23T00:32:43;49636.84;;;-140.19;95.34
6869;BME280;3473;42.604;23.496;2022-08-23T00:34:15;49386.19;;;-140.19;95.28
6869;BME280;3473;42.604;23.496;2022-08-23T00:35:46;49135.56;;;-140.19;95.27
6869;BME280;3473;42.604;23.496;2022-08-23T00:37:18;46379.88;;;-140.19;94.95
6869;BME280;3473;42.604;23.496;2022-08-23T00:38:50;46379.88;;;-140.19;94.92
6869;BME280;3473;42.604;23.496;2022-08-23T00:40:21;40551.09;;;-140.19;94.33
6869;BME280;3473;42.604;23.496;2022-08-23T00:41:56;40193.72;;;-140.19;94.27
6869;BME280;3473;42.604;23.496;2022-08-23T00:43:31;38711.91;;;-140.19;94.14
6869;BME280;3473;42.604;23.496;2022-08-23T00:45:25;35256.88;;;-140.19;93.83
6869;BME280;3473;42.604;23.496;2022-08-23T00:47:16;33110.72;;;-140.19;93.49
6869;BME280;3473;42.604;23.496;2022-08-23T00:49:10;32962.63;;;-140.19;93.37
6869;BME280;3473;42.604;23.496;2022-08-23T00:50:48;32839.88;;;-140.19;93.41
6869;BME280;3473;42.604;23.496;2022-08-23T00:52:26;33843.50;;;-140.19;93.50
6869;BME280;3473;42.604;23.496;2022-08-23T00:53:59;34525.75;;;-140.19;93.59
6869;BME280;3473;42.604;23.496;2022-08-23T00:55:32;34595.94;;;-140.19;93.65
6869;BME280;3473;42.604;23.496;2022-08-23T00:57:07;31602.81;;;-140.19;93.24
6869;BME280;3473;42.604;23.496;2022-08-23T00:58:40;31721.66;;;-140.19;93.21
6869;BME280;3473;42.604;23.496;2022-08-23T01:00:15;29908.72;;;-140.19;92.90
6869;BME280;3473;42.604;23.496;2022-08-23T01:01:48;27703.75;;;-140.19;92.49
6869;BME280;3473;42.604;23.496;2022-08-23T01:03:21;27639.53;;;-140.19;92.63
6869;BME280;3473;42.604;23.496;2022-08-23T01:04:57;30152.06;;;-140.19;93.09
6869;BME280;3473;42.604;23.496;2022-08-23T01:06:34;31596.97;;;-140.19;93.30
6869;BME280;3473;42.604;23.496;2022-08-23T01:08:07;39008.59;;;-140.19;94.36
6869;BME280;3473;42.604;23.496;2022-08-23T01:09:41;42221.28;;;-140.19;94.77
6869;BME280;3473;42.604;23.496;2022-08-23T01:11:18;49636.84;;;-140.19;95.56
6869;BME280;3473;42.604;23.496;2022-08-23T01:12:53;54402.63;;;-140.19;96.20
6869;BME280;3473;42.604;23.496;2022-08-23T01:14:30;59929.31;;;-140.19;96.88
6869;BME280;3473;42.604;23.496;2022-08-23T01:16:06;64961.38;;;-140.19;97.51
6869;BME280;3473;42.604;23.496;2022-08-23T01:17:42;67732.19;;;-140.19;98.00
6869;BME280;3473;42.604;23.496;2022-08-23T01:19:23;70505.25;;;-140.19;98.30
6869;BME280;3473;42.604;23.496;2022-08-23T01:21:02;72018.78;;;-140.19;98.48
6869;BME280;3473;42.604;23.496;2022-08-23T01:22:41;72271.09;;;-140.19;98.56
6869;BME280;3473;42.604;23.496;2022-08-23T01:24:15;72018.78;;;-140.19;98.47
6869;BME280;3473;42.604;23.496;2022-08-23T01:25:48;72018.78;;;-140.19;98.50
6869;BME280;3473;42.604;23.496;2022-08-23T01:27:20;71766.47;;;-140.19;98.48
6869;BME280;3473;42.604;23.496;2022-08-23T01:28:53;71514.19;;;-140.19;98.36
6869;BME280;3473;42.604;23.496;2022-08-23T01:30:28;63702.66;;;-140.19;97.25
6869;BME280;3473;42.604;23.496;2022-08-23T01:32:02;58421.16;;;-140.19;96.48
6869;BME280;3473;42.604;23.496;2022-08-23T01:33:35;57164.84;;;-140.19;96.44
6869;BME280;3473;42.604;23.496;2022-08-23T01:35:07;57164.84;;;-140.19;96.43
6869;BME280;3473;42.604;23.496;2022-08-23T01:36:38;57164.84;;;-140.19;96.39
6869;BME280;3473;42.604;23.496;2022-08-23T01:38:13;51893.47;;;-140.19;95.69
6869;BME280;3473;42.604;23.496;2022-08-23T01:39:46;51642.66;;;-140.19;95.76
6869;BME280;3473;42.604;23.496;2022-08-23T01:41:18;54151.63;;;-140.19;96.02
6869;BME280;3473;42.604;23.496;2022-08-23T01:42:49;51141.09;;;-140.19;95.72
6869;BME280;3473;42.604;23.496;2022-08-23T01:44:21;46880.75;;;-140.19;95.28
6869;BME280;3473;42.604;23.496;2022-08-23T01:45:53;44502.31;;;-140.19;95.09
6869;BME280;3473;42.604;23.496;2022-08-23T01:47:25;45855.63;;;-140.19;95.16
6869;BME280;3473;42.604;23.496;2022-08-23T01:48:57;46129.47;;;-140.19;95.24
6869;BME280;3473;42.604;23.496;2022-08-23T01:50:28;48133.25;;;-140.19;95.44
6869;BME280;3473;42.604;23.496;2022-08-23T01:52:00;49887.50;;;-140.19;95.57
6869;BME280;3473;42.604;23.496;2022-08-23T01:53:31;48884.94;;;-140.19;95.50
6869;BME280;3473;42.604;23.496;2022-08-23T01:55:05;46379.88;;;-140.19;95.24
6869;BME280;3473;42.604;23.496;2022-08-23T01:56:39;45879.09;;;-140.19;95.26
6869;BME280;3473;42.604;23.496;2022-08-23T01:58:11;47632.19;;;-140.19;95.30
6869;BME280;3473;42.604;23.496;2022-08-23T01:59:43;42834.88;;;-140.19;94.83
6869;BME280;3473;42.604;23.496;2022-08-23T02:01:14;35896.50;;;-140.19;94.17
6869;BME280;3473;42.604;23.496;2022-08-23T02:02:46;34888.38;;;-140.19;94.07
6869;BME280;3473;42.604;23.496;2022-08-23T02:04:18;30983.50;;;-140.19;93.55
6869;BME280;3473;42.604;23.496;2022-08-23T02:05:51;25605.22;;;-140.19;92.50
6869;BME280;3473;42.604;23.496;2022-08-23T02:07:25;22420.09;;;-140.19;91.67
6869;BME280;3473;42.604;23.496;2022-08-23T02:08:56;20396.75;;;-140.19;90.60
6869;BME280;3473;42.604;23.496;2022-08-23T02:10:35;19711.56;;;-140.19;90.02
6869;BME280;3473;42.604;23.496;2022-08-23T02:12:06;19630.03;;;-140.19;89.85
6869;BME280;3473;42.604;23.496;2022-08-23T02:13:38;19362.22;;;-140.19;89.49
6869;BME280;3473;42.604;23.496;2022-08-23T02:15:09;19370.00;;;-140.19;89.48
6869;BME280;3473;42.604;23.496;2022-08-23T02:16:46;19069.22;;;-140.19;86.76
6869;BME280;3473;42.604;23.496;2022-08-23T02:18:19;18099.13;;;-140.19;86.67
6869;BME280;3473;42.604;23.496;2022-08-23T02:19:51;18174.78;;;-140.19;86.98
6869;BME280;3473;42.604;23.496;2022-08-23T02:21:24;18108.84;;;-140.19;86.67
6869;BME280;3473;42.604;23.496;2022-08-23T02:22:55;18054.53;;;-140.19;86.38
6869;BME280;3473;42.604;23.496;2022-08-23T02:24:27;18048.69;;;-140.19;86.38
6869;BME280;3473;42.604;23.496;2022-08-23T02:25:59;17631.66;;;-140.19;84.89
6869;BME280;3473;42.604;23.496;2022-08-23T02:27:31;17697.59;;;-140.19;83.98
6869;BME280;3473;42.604;23.496;2022-08-23T02:29:03;17682.09;;;-140.19;84.16
6869;BME280;3473;42.604;23.496;2022-08-23T02:30:35;17790.72;;;-140.19;84.49
6869;BME280;3473;42.604;23.496;2022-08-23T02:32:07;17808.16;;;-140.19;84.83
6869;BME280;3473;42.604;23.496;2022-08-23T02:33:39;17751.91;;;-140.19;85.03
6869;BME280;3473;42.604;23.496;2022-08-23T02:35:11;17868.28;;;-140.19;85.32
6869;BME280;3473;42.604;23.496;2022-08-23T02:36:43;17949.78;;;-140.19;85.57
6869;BME280;3473;42.604;23.496;2022-08-23T02:38:15;18083.63;;;-140.19;85.37
6869;BME280;3473;42.604;23.496;2022-08-23T02:39:47;17782.94;;;-140.19;85.17
6869;BME280;3473;42.604;23.496;2022-08-23T02:41:20;17709.25;;;-140.19;85.62
6869;BME280;3473;42.604;23.496;2022-08-23T02:42:52;17980.81;;;-140.19;85.67
6869;BME280;3473;42.604;23.496;2022-08-23T02:44:24;18081.69;;;-140.19;85.82
6869;BME280;3473;42.604;23.496;2022-08-23T02:45:56;18054.53;;;-140.19;86.09
6869;BME280;3473;42.604;23.496;2022-08-23T02:47:28;18233.00;;;-140.19;86.78
6869;BME280;3473;42.604;23.496;2022-08-23T02:48:59;18209.72;;;-140.19;86.96
6869;BME280;3473;42.604;23.496;2022-08-23T02:50:31;18120.47;;;-140.19;86.56
6869;BME280;3473;42.604;23.496;2022-08-23T02:52:04;18137.94;;;-140.19;86.42
6869;BME280;3473;42.604;23.496;2022-08-23T02:53:36;18252.38;;;-140.19;86.56
6869;BME280;3473;42.604;23.496;2022-08-23T02:55:08;18205.81;;;-140.19;86.43
6869;BME280;3473;42.604;23.496;2022-08-23T02:56:41;18040.94;;;-140.19;85.93
6869;BME280;3473;42.604;23.496;2022-08-23T02:58:13;17876.06;;;-140.19;85.54
6869;BME280;3473;42.604;23.496;2022-08-23T02:59:44;17930.38;;;-140.19;85.80
6869;BME280;3473;42.604;23.496;2022-08-23T03:01:17;18070.03;;;-140.19;86.00
6869;BME280;3473;42.604;23.496;2022-08-23T03:02:50;18201.94;;;-140.19;86.51
6869;BME280;3473;42.604;23.496;2022-08-23T03:04:22;18085.56;;;-140.19;87.20
6869;BME280;3473;42.604;23.496;2022-08-23T03:05:55;18347.44;;;-140.19;87.10
6869;BME280;3473;42.604;23.496;2022-08-23T03:07:27;18182.56;;;-140.19;87.29
6869;BME280;3473;42.604;23.496;2022-08-23T03:09:00;18419.22;;;-140.19;87.47
6869;BME280;3473;42.604;23.496;2022-08-23T03:10:31;18242.69;;;-140.19;87.01
6869;BME280;3473;42.604;23.496;2022-08-23T03:12:05;18058.41;;;-140.19;86.53
6869;BME280;3473;42.604;23.496;2022-08-23T03:13:37;17782.94;;;-140.19;85.88
6869;BME280;3473;42.604;23.496;2022-08-23T03:15:09;17874.13;;;-140.19;85.97
6869;BME280;3473;42.604;23.496;2022-08-23T03:16:41;17955.59;;;-140.19;86.04
6869;BME280;3473;42.604;23.496;2022-08-23T03:18:13;17800.41;;;-140.19;85.31
6869;BME280;3473;42.604;23.496;2022-08-23T03:19:45;17736.41;;;-140.19;84.14
6869;BME280;3473;42.604;23.496;2022-08-23T03:21:18;17468.72;;;-140.19;83.52
6869;BME280;3473;42.604;23.496;2022-08-23T03:22:50;17662.69;;;-140.19;84.01
6869;BME280;3473;42.604;23.496;2022-08-23T03:24:22;17709.25;;;-140.19;83.98
6869;BME280;3473;42.604;23.496;2022-08-23T03:25:55;17459.03;;;-140.19;83.39
6869;BME280;3473;42.604;23.496;2022-08-23T03:27:28;17488.13;;;-140.19;82.49
6869;BME280;3473;42.604;23.496;2022-08-23T03:29:01;17431.88;;;-140.19;81.85
6869;BME280;3473;42.604;23.496;2022-08-23T03:30:33;17398.91;;;-140.19;82.42
6869;BME280;3473;42.604;23.496;2022-08-23T03:32:06;17536.63;;;-140.19;83.35
6869;BME280;3473;42.604;23.496;2022-08-23T03:33:38;17625.84;;;-140.19;83.02
6869;BME280;3473;42.604;23.496;2022-08-23T03:35:10;17589.00;;;-140.19;82.54
6869;BME280;3473;42.604;23.496;2022-08-23T03:36:43;17550.19;;;-140.19;82.41
6869;BME280;3473;42.604;23.496;2022-08-23T03:38:15;17414.44;;;-140.19;82.16
6869;BME280;3473;42.604;23.496;2022-08-23T03:39:46;17515.28;;;-140.19;82.54
6869;BME280;3473;42.604;23.496;2022-08-23T03:41:17;17625.84;;;-140.19;82.69
6869;BME280;3473;42.604;23.496;2022-08-23T03:42:51;17713.13;;;-140.19;84.23
6869;BME280;3473;42.604;23.496;2022-08-23T03:44:21;18040.94;;;-140.19;85.76
6869;BME280;3473;42.604;23.496;2022-08-23T03:45:53;18091.38;;;-140.19;86.38
6869;BME280;3473;42.604;23.496;2022-08-23T03:47:25;18516.22;;;-140.19;86.93
6869;BME280;3473;42.604;23.496;2022-08-23T03:48:59;18413.41;;;-140.19;87.58
6869;BME280;3473;42.604;23.496;2022-08-23T03:50:32;18564.75;;;-140.19;87.70
6869;BME280;3473;42.604;23.496;2022-08-23T03:52:04;18568.63;;;-140.19;88.09
6869;BME280;3473;42.604;23.496;2022-08-23T03:53:36;18881.00;;;-140.19;88.59
6869;BME280;3473;42.604;23.496;2022-08-23T03:55:07;18861.59;;;-140.19;88.83
6869;BME280;3473;42.604;23.496;2022-08-23T03:56:50;19016.81;;;-140.19;88.71
6869;BME280;3473;42.604;23.496;2022-08-23T03:58:23;19172.06;;;-140.19;89.33
6869;BME280;3473;42.604;23.496;2022-08-23T03:59:58;19340.88;;;-140.19;89.53
6869;BME280;3473;42.604;23.496;2022-08-23T04:01:30;19928.94;;;-140.19;90.18
6869;BME280;3473;42.604;23.496;2022-08-23T04:03:02;20220.09;;;-140.19;90.59
6869;BME280;3473;42.604;23.496;2022-08-23T04:04:34;20686.00;;;-140.19;91.00
6869;BME280;3473;42.604;23.496;2022-08-23T04:06:06;20942.25;;;-140.19;90.90
6869;BME280;3473;42.604;23.496;2022-08-23T04:07:38;20961.69;;;-140.19;91.07
6869;BME280;3473;42.604;23.496;2022-08-23T04:09:10;21693.72;;;-140.19;91.43
6869;BME280;3473;42.604;23.496;2022-08-23T04:10:41;22247.25;;;-140.19;91.65
6869;BME280;3473;42.604;23.496;2022-08-23T04:12:13;22441.47;;;-140.19;91.79
6869;BME280;3473;42.604;23.496;2022-08-23T04:13:47;23144.69;;;-140.19;92.08
6869;BME280;3473;42.604;23.496;2022-08-23T04:15:19;23152.47;;;-140.19;91.88
6869;BME280;3473;42.604;23.496;2022-08-23T04:16:51;23117.50;;;-140.19;91.99
6869;BME280;3473;42.604;23.496;2022-08-23T04:18:23;23055.34;;;-140.19;92.01
6869;BME280;3473;42.604;23.496;2022-08-23T04:19:56;23142.75;;;-140.19;91.86
6869;BME280;3473;42.604;23.496;2022-08-23T04:21:32;23187.44;;;-140.19;91.93
6869;BME280;3473;42.604;23.496;2022-08-23T04:23:04;23434.19;;;-140.19;91.81
6869;BME280;3473;42.604;23.496;2022-08-23T04:24:36;23657.66;;;-140.19;92.06
6869;BME280;3473;42.604;23.496;2022-08-23T04:26:09;23471.09;;;-140.19;92.02
6869;BME280;3473;42.604;23.496;2022-08-23T04:27:40;22845.53;;;-140.19;91.74
6869;BME280;3473;42.604;23.496;2022-08-23T04:29:13;22154.00;;;-140.19;91.43
6869;BME280;3473;42.604;23.496;2022-08-23T04:30:46;21895.69;;;-140.19;91.33
6869;BME280;3473;42.604;23.496;2022-08-23T04:32:19;21563.63;;;-140.19;91.13
6869;BME280;3473;42.604;23.496;2022-08-23T04:33:51;21583.03;;;-140.19;91.21
6869;BME280;3473;42.604;23.496;2022-08-23T04:35:23;21584.97;;;-140.19;91.21
6869;BME280;3473;42.604;23.496;2022-08-23T04:36:55;21819.97;;;-140.19;91.25
6869;BME280;3473;42.604;23.496;2022-08-23T04:38:27;21586.91;;;-140.19;91.00
6869;BME280;3473;42.604;23.496;2022-08-23T04:39:59;21414.09;;;-140.19;91.19
6869;BME280;3473;42.604;23.496;2022-08-23T04:41:48;21037.41;;;-140.19;91.01
6869;BME280;3473;42.604;23.496;2022-08-23T04:43:38;20330.75;;;-140.19;90.38
6869;BME280;3473;42.604;23.496;2022-08-23T04:45:11;19897.88;;;-140.19;89.96
6869;BME280;3473;42.604;23.496;2022-08-23T04:46:43;19771.72;;;-140.19;89.81
6869;BME280;3473;42.604;23.496;2022-08-23T04:48:15;19773.66;;;-140.19;89.84
6869;BME280;3473;42.604;23.496;2022-08-23T04:49:47;19750.38;;;-140.19;89.66
6869;BME280;3473;42.604;23.496;2022-08-23T04:51:19;19505.84;;;-140.19;89.63
6869;BME280;3473;42.604;23.496;2022-08-23T04:52:51;19309.84;;;-140.19;89.10
6869;BME280;3473;42.604;23.496;2022-08-23T04:54:23;18875.19;;;-140.19;88.54
6869;BME280;3473;42.604;23.496;2022-08-23T04:55:55;18673.38;;;-140.19;88.08
6869;BME280;3473;42.604;23.496;2022-08-23T04:57:26;18446.38;;;-140.19;87.31
6869;BME280;3473;42.604;23.496;2022-08-23T04:58:58;18533.69;;;-140.19;87.41
6869;BME280;3473;42.604;23.496;2022-08-23T05:00:30;18551.16;;;-140.19;87.64
6869;BME280;3473;42.604;23.496;2022-08-23T05:02:02;18737.41;;;-140.19;87.96
6869;BME280;3473;42.604;23.496;2022-08-23T05:03:33;18749.06;;;-140.19;88.22
6869;BME280;3473;42.604;23.496;2022-08-23T05:05:05;18716.06;;;-140.19;88.50
6869;BME280;3473;42.604;23.496;2022-08-23T05:06:37;19007.13;;;-140.19;88.70
6869;BME280;3473;42.604;23.496;2022-08-23T05:08:09;18921.75;;;-140.19;88.83
6869;BME280;3473;42.604;23.496;2022-08-23T05:09:40;18846.06;;;-140.19;88.61
6869;BME280;3473;42.604;23.496;2022-08-23T05:11:12;18415.34;;;-140.19;87.46
6869;BME280;3473;42.604;23.496;2022-08-23T05:12:45;18452.22;;;-140.19;87.36
6869;BME280;3473;42.604;23.496;2022-08-23T05:14:17;18551.16;;;-140.19;87.66
6869;BME280;3473;42.604;23.496;2022-08-23T05:15:50;18657.88;;;-140.19;87.99
6869;BME280;3473;42.604;23.496;2022-08-23T05:17:23;18927.56;;;-140.19;88.39
6869;BME280;3473;42.604;23.496;2022-08-23T05:18:55;19036.22;;;-140.19;88.80
6869;BME280;3473;42.604;23.496;2022-08-23T05:20:27;19272.97;;;-140.19;89.25
6869;BME280;3473;42.604;23.496;2022-08-23T05:21:58;19090.56;;;-140.19;89.23
6869;BME280;3473;42.604;23.496;2022-08-23T05:23:30;19214.75;;;-140.19;89.17
6869;BME280;3473;42.604;23.496;2022-08-23T05:25:03;19232.22;;;-140.19;89.03
6869;BME280;3473;42.604;23.496;2022-08-23T05:26:35;19455.38;;;-140.19;89.17
6869;BME280;3473;42.604;23.496;2022-08-23T05:28:07;18795.63;;;-140.19;88.46
6869;BME280;3473;42.604;23.496;2022-08-23T05:29:39;18908.16;;;-140.19;88.32
6869;BME280;3473;42.604;23.496;2022-08-23T05:31:17;18751.00;;;-140.19;88.04
6869;BME280;3473;42.604;23.496;2022-08-23T05:32:49;18902.34;;;-140.19;87.94
6869;BME280;3473;42.604;23.496;2022-08-23T05:34:20;18302.81;;;-140.19;87.23
6869;BME280;3473;42.604;23.496;2022-08-23T05:35:54;18609.34;;;-140.19;87.66
6869;BME280;3473;42.604;23.496;2022-08-23T05:37:26;18269.84;;;-140.19;86.56
6869;BME280;3473;42.604;23.496;2022-08-23T05:38:57;18093.31;;;-140.19;85.92
6869;BME280;3473;42.604;23.496;2022-08-23T05:40:29;18066.16;;;-140.19;84.76
6869;BME280;3473;42.604;23.496;2022-08-23T05:42:01;17592.88;;;-140.19;83.15
6869;BME280;3473;42.604;23.496;2022-08-23T05:43:33;17660.75;;;-140.19;82.21
6869;BME280;3473;42.604;23.496;2022-08-23T05:45:06;17724.75;;;-140.19;82.44
6869;BME280;3473;42.604;23.496;2022-08-23T05:46:40;17620.03;;;-140.19;81.56
6869;BME280;3473;42.604;23.496;2022-08-23T05:48:13;17261.22;;;-140.19;80.05
6869;BME280;3473;42.604;23.496;2022-08-23T05:49:45;17340.72;;;-140.19;79.97
6869;BME280;3473;42.604;23.496;2022-08-23T05:51:19;17125.47;;;-140.19;78.81
6869;BME280;3473;42.604;23.496;2022-08-23T05:52:51;16499.13;;;-140.19;78.07
6869;BME280;3473;42.604;23.496;2022-08-23T05:54:23;17385.34;;;-140.19;78.75
6869;BME280;3473;42.604;23.496;2022-08-23T05:55:55;17424.13;;;-140.19;78.39
6869;BME280;3473;42.604;23.496;2022-08-23T05:57:25;17383.41;;;-140.19;78.02
6869;BME280;3473;42.604;23.496;2022-08-23T05:58:59;17276.72;;;-140.19;76.54
6869;BME280;3473;42.604;23.496;2022-08-23T06:00:31;17247.63;;;-140.19;76.76
6869;BME280;3473;42.604;23.496;2022-08-23T06:02:04;17214.66;;;-140.19;75.69
6869;BME280;3473;42.604;23.496;2022-08-23T06:03:36;17303.88;;;-140.19;74.47
6869;BME280;3473;42.604;23.496;2022-08-23T06:05:08;17627.78;;;-140.19;74.01
6869;BME280;3473;42.604;23.496;2022-08-23T06:06:41;17331.03;;;-140.19;73.10
6869;BME280;3473;42.604;23.496;2022-08-23T06:08:13;17375.63;;;-140.19;72.66
6869;BME280;3473;42.604;23.496;2022-08-23T06:09:45;17528.88;;;-140.19;72.12
6869;BME280;3473;42.604;23.496;2022-08-23T06:11:20;17536.63;;;-140.19;71.18
6869;BME280;3473;42.604;23.496;2022-08-23T06:12:52;17579.28;;;-140.19;69.77
6869;BME280;3473;42.604;23.496;2022-08-23T06:14:24;17651.06;;;-140.19;68.66
6869;BME280;3473;42.604;23.496;2022-08-23T06:15:57;17606.44;;;-140.19;67.86
6869;BME280;3473;42.604;23.496;2022-08-23T06:17:31;17726.69;;;-140.19;66.90
6869;BME280;3473;42.604;23.496;2022-08-23T06:19:03;17928.44;;;-140.19;67.13
6869;BME280;3473;42.604;23.496;2022-08-23T06:20:35;18095.25;;;-140.19;66.71
6869;BME280;3473;42.604;23.496;2022-08-23T06:22:06;18050.63;;;-140.19;66.43
6869;BME280;3473;42.604;23.496;2022-08-23T06:23:38;18176.72;;;-140.19;65.54
6869;BME280;3473;42.604;23.496;2022-08-23T06:25:10;18345.50;;;-140.19;65.27
6869;BME280;3473;42.604;23.496;2022-08-23T06:26:43;18345.50;;;-140.19;64.77
6869;BME280;3473;42.604;23.496;2022-08-23T06:28:15;17350.44;;;-140.19;64.40
6869;BME280;3473;42.604;23.496;2022-08-23T06:29:47;18291.19;;;-140.19;64.84
6869;BME280;3473;42.604;23.496;2022-08-23T06:31:21;18213.59;;;-140.19;65.27
6869;BME280;3473;42.604;23.496;2022-08-23T06:33:09;18401.78;;;-140.19;63.61
6869;BME280;3473;42.604;23.496;2022-08-23T06:34:43;18452.22;;;-140.19;62.22
6869;BME280;3473;42.604;23.496;2022-08-23T06:36:14;18446.38;;;-140.19;63.28
6869;BME280;3473;42.604;23.496;2022-08-23T06:37:46;18423.09;;;-140.19;63.40
6869;BME280;3473;42.604;23.496;2022-08-23T06:39:20;18518.19;;;-140.19;62.57
6869;BME280;3473;42.604;23.496;2022-08-23T06:40:59;18566.69;;;-140.19;63.10
6869;BME280;3473;42.604;23.496;2022-08-23T06:42:30;18440.56;;;-140.19;61.95
6869;BME280;3473;42.604;23.496;2022-08-23T06:44:03;18442.50;;;-140.19;60.96
6869;BME280;3473;42.604;23.496;2022-08-23T06:45:34;18500.72;;;-140.19;61.73
6869;BME280;3473;42.604;23.496;2022-08-23T06:47:07;18558.91;;;-140.19;60.07
6869;BME280;3473;42.604;23.496;2022-08-23T06:48:41;18549.22;;;-140.19;59.91
6869;BME280;3473;42.604;23.496;2022-08-23T06:50:14;18661.75;;;-140.19;59.78
6869;BME280;3473;42.604;23.496;2022-08-23T06:51:48;18644.28;;;-140.19;59.85
6869;BME280;3473;42.604;23.496;2022-08-23T06:53:20;18702.50;;;-140.19;59.77
6869;BME280;3473;42.604;23.496;2022-08-23T06:54:53;18718.00;;;-140.19;60.04
6869;BME280;3473;42.604;23.496;2022-08-23T06:56:26;18749.06;;;-140.19;59.63
6869;BME280;3473;42.604;23.496;2022-08-23T06:57:58;18708.31;;;-140.19;59.34
6869;BME280;3473;42.604;23.496;2022-08-23T06:59:30;18785.91;;;-140.19;59.59
6869;BME280;3473;42.604;23.496;2022-08-23T07:01:12;18813.09;;;-140.19;59.31
6869;BME280;3473;42.604;23.496;2022-08-23T07:02:47;18766.53;;;-140.19;58.17
6869;BME280;3473;42.604;23.496;2022-08-23T07:04:22;18815.03;;;-140.19;57.42
6869;BME280;3473;42.604;23.496;2022-08-23T07:05:55;18945.03;;;-140.19;57.23
6869;BME280;3473;42.604;23.496;2022-08-23T07:07:26;18848.00;;;-140.19;56.81
6869;BME280;3473;42.604;23.496;2022-08-23T07:08:59;18855.78;;;-140.19;54.77
6869;BME280;3473;42.604;23.496;2022-08-23T07:10:31;18861.59;;;-140.19;55.60
6869;BME280;3473;42.604;23.496;2022-08-23T07:12:03;18950.84;;;-140.19;54.51
6869;BME280;3473;42.604;23.496;2022-08-23T07:13:36;18954.72;;;-140.19;55.58
6869;BME280;3473;42.604;23.496;2022-08-23T07:15:09;18972.19;;;-140.19;55.15
6869;BME280;3473;42.604;23.496;2022-08-23T07:16:43;18981.91;;;-140.19;53.63
6869;BME280;3473;42.604;23.496;2022-08-23T07:18:15;18948.91;;;-140.19;54.21
6869;BME280;3473;42.604;23.496;2022-08-23T07:19:48;18962.50;;;-140.19;52.77
6869;BME280;3473;42.604;23.496;2022-08-23T07:21:21;19044.00;;;-140.19;52.03
6869;BME280;3473;42.604;23.496;2022-08-23T07:22:52;19098.31;;;-140.19;50.83
6869;BME280;3473;42.604;23.496;2022-08-23T07:24:25;19144.88;;;-140.19;52.07
6869;BME280;3473;42.604;23.496;2022-08-23T07:25:57;19133.25;;;-140.19;52.17
6869;BME280;3473;42.604;23.496;2022-08-23T07:27:29;19144.88;;;-140.19;52.42
6869;BME280;3473;42.604;23.496;2022-08-23T07:29:02;19210.88;;;-140.19;52.55
6869;BME280;3473;42.604;23.496;2022-08-23T07:30:34;19288.50;;;-140.19;52.41
6869;BME280;3473;42.604;23.496;2022-08-23T07:32:07;19230.28;;;-140.19;52.60
6869;BME280;3473;42.604;23.496;2022-08-23T07:33:40;18865.47;;;-140.19;53.12
6869;BME280;3473;42.604;23.496;2022-08-23T07:35:13;19305.97;;;-140.19;54.73
6869;BME280;3473;42.604;23.496;2022-08-23T07:36:46;19195.34;;;-140.19;55.18
6869;BME280;3473;42.604;23.496;2022-08-23T07:38:18;19329.25;;;-140.19;55.48
6869;BME280;3473;42.604;23.496;2022-08-23T07:39:49;19172.06;;;-140.19;55.93
6869;BME280;3473;42.604;23.496;2022-08-23T07:41:22;19224.44;;;-140.19;55.92
6869;BME280;3473;42.604;23.496;2022-08-23T07:42:55;19218.63;;;-140.19;55.95
6869;BME280;3473;42.604;23.496;2022-08-23T07:44:26;19123.53;;;-140.19;55.71
6869;BME280;3473;42.604;23.496;2022-08-23T07:46:00;19278.78;;;-140.19;56.58
6869;BME280;3473;42.604;23.496;2022-08-23T07:47:33;19255.50;;;-140.19;58.26
6869;BME280;3473;42.604;23.496;2022-08-23T07:49:05;19261.31;;;-140.19;57.49
6869;BME280;3473;42.604;23.496;2022-08-23T07:50:39;19172.06;;;-140.19;57.33
6869;BME280;3473;42.604;23.496;2022-08-23T07:52:11;19271.03;;;-140.19;57.61
6869;BME280;3473;42.604;23.496;2022-08-23T07:53:43;19325.38;;;-140.19;57.59
6869;BME280;3473;42.604;23.496;2022-08-23T07:55:16;19255.50;;;-140.19;56.43
6869;BME280;3473;42.604;23.496;2022-08-23T07:56:47;19340.88;;;-140.19;57.60
6869;BME280;3473;42.604;23.496;2022-08-23T07:58:20;19236.09;;;-140.19;57.70
6869;BME280;3473;42.604;23.496;2022-08-23T07:59:52;19276.84;;;-140.19;57.98
6869;BME280;3473;42.604;23.496;2022-08-23T08:01:26;19263.25;;;-140.19;57.86
6869;BME280;3473;42.604;23.496;2022-08-23T08:02:58;19243.84;;;-140.19;58.43
6869;BME280;3473;42.604;23.496;2022-08-23T08:04:29;19354.47;;;-140.19;59.15
6869;BME280;3473;42.604;23.496;2022-08-23T08:06:07;19300.13;;;-140.19;59.67